createdAt,value
2022-11-12T00:02:11.467Z,103150
2022-11-12T00:07:10.986Z,103160
2022-11-12T00:12:10.941Z,103150
2022-11-12T00:17:10.998Z,103160
2022-11-12T00:22:11.015Z,103170
2022-11-12T00:27:11.387Z,103160
2022-11-12T00:32:11.866Z,103160
2022-11-12T00:37:11.032Z,103170
2022-11-12T00:42:11.121Z,103160
2022-11-12T00:47:11.026Z,103160
2022-11-12T00:52:11.030Z,103170
2022-11-12T00:57:11.118Z,103160
2022-11-12T01:02:11.590Z,103170
2022-11-12T01:07:11.137Z,103170
2022-11-12T01:12:11.122Z,103160
2022-11-12T01:17:11.104Z,103170
2022-11-12T01:22:11.141Z,103170
2022-11-12T01:27:11.122Z,103160
2022-11-12T01:32:11.141Z,103170
2022-11-12T01:37:11.135Z,103170
2022-11-12T01:42:11.209Z,103150
2022-11-12T01:47:20.131Z,103150
2022-11-12T01:52:22.154Z,103140
2022-11-12T01:57:12.090Z,103140
2022-11-12T02:02:12.671Z,103140
2022-11-12T02:07:11.532Z,103150
2022-11-12T02:12:11.226Z,103150
2022-11-12T02:17:11.409Z,103140
2022-11-12T02:22:11.489Z,103130
2022-11-12T02:27:11.560Z,103130
2022-11-12T02:32:12.365Z,103130
2022-11-12T02:37:11.303Z,103130
2022-11-12T02:42:11.288Z,103130
2022-11-12T02:47:11.318Z,103130
2022-11-12T02:52:11.352Z,103140
2022-11-12T02:57:11.381Z,103140
2022-11-12T03:02:11.770Z,103140
2022-11-12T03:07:11.716Z,103140
2022-11-12T03:12:11.412Z,103130
2022-11-12T03:17:11.372Z,103110
2022-11-12T03:22:11.391Z,103120
2022-11-12T03:27:11.409Z,103110
2022-11-12T03:32:11.429Z,103110
2022-11-12T03:37:11.404Z,103110
2022-11-12T03:42:11.443Z,103110
2022-11-12T03:47:11.450Z,103110
2022-11-12T03:52:11.456Z,103110
2022-11-12T03:57:11.454Z,103110
2022-11-12T04:02:12.764Z,103120
2022-11-12T04:07:11.539Z,103120
2022-11-12T04:12:11.497Z,103130
2022-11-12T04:17:11.524Z,103130
2022-11-12T04:22:11.658Z,103130
2022-11-12T04:27:14.796Z,103130
2022-11-12T04:32:11.936Z,103130
2022-11-12T04:37:11.621Z,103130
2022-11-12T04:42:11.569Z,103120
2022-11-12T04:47:11.580Z,103110
2022-11-12T04:52:11.606Z,103100
2022-11-12T04:57:11.744Z,103090
2022-11-12T05:02:13.264Z,103090
2022-11-12T05:07:12.426Z,103090
2022-11-12T05:12:11.707Z,103080
2022-11-12T05:17:11.662Z,103080
2022-11-12T05:22:33.421Z,103080
2022-11-12T05:27:14.506Z,103070
2022-11-12T05:32:14.548Z,103070
2022-11-12T05:37:12.956Z,103080
2022-11-12T05:42:13.413Z,103070
2022-11-12T05:47:11.706Z,103080
2022-11-12T05:52:11.728Z,103080
2022-11-12T05:57:11.734Z,103080
2022-11-12T06:02:12.130Z,103080
2022-11-12T06:07:11.798Z,103080
2022-11-12T06:12:11.770Z,103090
2022-11-12T06:17:11.781Z,103090
2022-11-12T06:22:11.809Z,103100
2022-11-12T06:27:11.797Z,103090
2022-11-12T06:32:11.861Z,103090
2022-11-12T06:37:11.825Z,103090
2022-11-12T06:42:11.825Z,103090
2022-11-12T06:47:11.895Z,103090
2022-11-12T06:52:16.437Z,103090
2022-11-12T06:57:11.908Z,103090
2022-11-12T07:02:12.369Z,103100
2022-11-12T07:07:11.957Z,103120
2022-11-12T07:12:11.903Z,103120
2022-11-12T07:17:11.907Z,103120
2022-11-12T07:22:11.970Z,103130
2022-11-12T07:27:11.922Z,103130
2022-11-12T07:32:11.968Z,103120
2022-11-12T07:37:12.032Z,103120
2022-11-12T07:42:11.958Z,103120
2022-11-12T07:47:11.996Z,103120
2022-11-12T07:52:11.998Z,103130
2022-11-12T07:57:12.031Z,103140
2022-11-12T08:02:12.550Z,103140
2022-11-12T08:07:12.148Z,103140
2022-11-12T08:12:12.028Z,103150
2022-11-12T08:17:12.041Z,103150
2022-11-12T08:22:12.057Z,103160
2022-11-12T08:27:12.069Z,103160
2022-11-12T08:32:12.077Z,103150
2022-11-12T08:37:12.099Z,103150
2022-11-12T08:42:12.108Z,103150
2022-11-12T08:47:12.180Z,103150
2022-11-12T08:52:12.137Z,103160
2022-11-12T08:57:12.158Z,103160
2022-11-12T09:02:13.282Z,103160
2022-11-12T09:07:28.564Z,103150
2022-11-12T09:12:18.048Z,103150
2022-11-12T09:17:12.570Z,103140
2022-11-12T09:22:12.235Z,103150
2022-11-12T09:27:12.210Z,103150
2022-11-12T09:32:12.217Z,103150
2022-11-12T09:37:12.308Z,103160
2022-11-12T09:42:15.097Z,103150
2022-11-12T09:47:18.409Z,103160
2022-11-12T09:52:18.470Z,103160
2022-11-12T09:57:12.323Z,103160
2022-11-12T10:02:24.406Z,103160
2022-11-12T10:07:23.258Z,103160
2022-11-12T10:12:32.202Z,103160
2022-11-12T10:17:32.220Z,103160
2022-11-12T10:22:20.643Z,103150
2022-11-12T10:27:17.332Z,103140
2022-11-12T10:32:14.715Z,103140
2022-11-12T10:37:19.303Z,103140
2022-11-12T10:42:14.900Z,103140
2022-11-12T10:47:31.768Z,103140
2022-11-12T10:52:21.864Z,103130
2022-11-12T10:57:23.391Z,103120
2022-11-12T11:02:18.092Z,103110
2022-11-12T11:07:20.025Z,103110
2022-11-12T11:12:26.601Z,103100
2022-11-12T11:17:16.284Z,103100
2022-11-12T11:22:24.631Z,103100
2022-11-12T11:27:32.372Z,103100
2022-11-12T11:32:37.209Z,103110
2022-11-12T11:37:24.903Z,103100
2022-11-12T11:42:28.967Z,103100
2022-11-12T11:47:43.982Z,103090
2022-11-12T11:52:22.488Z,103090
2022-11-12T11:57:21.569Z,103090
2022-11-12T12:02:24.677Z,103080
2022-11-12T12:07:29.090Z,103070
2022-11-12T12:12:26.682Z,103060
2022-11-12T12:17:32.493Z,103060
2022-11-12T12:22:17.788Z,103050
2022-11-12T12:27:17.603Z,103050
2022-11-12T12:32:27.323Z,103040
2022-11-12T12:37:23.313Z,103030
2022-11-12T12:42:19.409Z,103020
2022-11-12T12:47:13.697Z,103020
2022-11-12T12:52:13.267Z,103010
2022-11-12T12:57:26.124Z,103000
2022-11-12T13:02:20.121Z,103000
2022-11-12T13:07:12.787Z,102990
2022-11-12T13:12:16.110Z,102990
2022-11-12T13:17:32.626Z,102990
2022-11-12T13:22:15.940Z,102990
2022-11-12T13:27:12.743Z,102970
2022-11-12T13:32:25.609Z,102970
2022-11-12T13:37:19.982Z,102980
2022-11-12T13:42:16.094Z,102980
2022-11-12T13:47:18.066Z,102960
2022-11-12T13:52:14.529Z,102970
2022-11-12T13:57:20.248Z,102980
2022-11-12T14:02:24.005Z,102980
2022-11-12T14:07:26.030Z,102970
2022-11-12T14:12:28.977Z,102960
2022-11-12T14:17:22.808Z,102960
2022-11-12T14:22:15.277Z,102950
2022-11-12T14:27:31.812Z,102950
2022-11-12T14:32:14.223Z,102940
2022-11-12T14:37:32.824Z,102930
2022-11-12T14:42:14.180Z,102930
2022-11-12T14:47:16.858Z,102940
2022-11-12T14:52:19.565Z,102940
2022-11-12T14:57:19.620Z,102940
2022-11-12T15:02:37.630Z,102940
2022-11-12T15:07:25.588Z,102950
2022-11-12T15:12:19.773Z,102950
2022-11-12T15:17:27.698Z,102940
2022-11-12T15:22:19.828Z,102950
2022-11-12T15:27:32.325Z,102950
2022-11-12T15:32:14.160Z,102940
2022-11-12T15:37:16.272Z,102930
2022-11-12T15:42:16.157Z,102930
2022-11-12T15:47:20.972Z,102930
2022-11-12T15:52:13.072Z,102930
2022-11-12T15:57:18.931Z,102920
2022-11-12T16:02:13.680Z,102920
2022-11-12T16:07:13.205Z,102910
2022-11-12T16:12:14.828Z,102910
2022-11-12T16:22:13.139Z,102900
2022-11-12T16:27:13.906Z,102900
2022-11-12T16:32:13.265Z,102900
2022-11-12T16:37:13.426Z,102910
2022-11-12T16:42:13.190Z,102910
2022-11-12T16:47:13.531Z,102920
2022-11-12T16:52:13.268Z,102920
2022-11-12T16:57:13.333Z,102900
2022-11-12T17:02:14.773Z,102910
2022-11-12T17:07:13.297Z,102910
2022-11-12T17:12:13.244Z,102920
2022-11-12T17:17:13.316Z,102920
2022-11-12T17:22:13.284Z,102910
2022-11-12T17:27:13.733Z,102910
2022-11-12T17:32:13.341Z,102910
2022-11-12T17:37:13.290Z,102910
2022-11-12T17:42:13.310Z,102900
2022-11-12T17:47:13.398Z,102910
2022-11-12T17:52:13.395Z,102910
2022-11-12T17:57:13.350Z,102900
2022-11-12T18:02:14.059Z,102900
2022-11-12T18:07:13.494Z,102900
2022-11-12T18:12:14.127Z,102900
2022-11-12T18:17:13.395Z,102900
2022-11-12T18:22:13.815Z,102900
2022-11-12T18:27:13.446Z,102900
2022-11-12T18:32:13.485Z,102900
2022-11-12T18:37:13.419Z,102900
2022-11-12T18:42:13.564Z,102900
2022-11-12T18:47:13.465Z,102900
2022-11-12T18:52:13.500Z,102890
2022-11-12T18:57:13.496Z,102890
2022-11-12T19:02:14.339Z,102890
2022-11-12T19:07:13.650Z,102890
2022-11-12T19:12:13.522Z,102890
2022-11-12T19:17:13.544Z,102890
2022-11-12T19:22:13.535Z,102890
2022-11-12T19:27:13.543Z,102880
2022-11-12T19:32:13.653Z,102890
2022-11-12T19:37:33.412Z,102890
2022-11-12T19:42:13.603Z,102890
2022-11-12T19:47:13.666Z,102880
2022-11-12T19:52:13.599Z,102880
2022-11-12T19:57:13.670Z,102880
2022-11-12T20:02:14.165Z,102870
2022-11-12T20:07:13.723Z,102870
2022-11-12T20:12:13.654Z,102870
2022-11-12T20:17:13.664Z,102870
2022-11-12T20:22:13.684Z,102870
2022-11-12T20:27:13.690Z,102860
2022-11-12T20:32:13.733Z,102860
2022-11-12T20:37:13.701Z,102860
2022-11-12T20:42:13.727Z,102850
2022-11-12T20:47:13.725Z,102850
2022-11-12T20:52:13.760Z,102850
2022-11-12T20:57:13.750Z,102850
2022-11-12T21:02:14.274Z,102840
2022-11-12T21:07:13.846Z,102830
2022-11-12T21:12:13.790Z,102830
2022-11-12T21:17:13.799Z,102820
2022-11-12T21:22:13.805Z,102820
2022-11-12T21:27:13.902Z,102820
2022-11-12T21:32:13.822Z,102820
2022-11-12T21:37:13.828Z,102810
2022-11-12T21:42:13.873Z,102810
2022-11-12T21:47:13.857Z,102810
2022-11-12T21:52:13.900Z,102810
2022-11-12T21:57:18.614Z,102810
2022-11-12T22:02:14.937Z,102810
2022-11-12T22:07:14.046Z,102810
2022-11-12T22:12:13.926Z,102810
2022-11-12T22:17:13.935Z,102810
2022-11-12T22:22:13.968Z,102800
2022-11-12T22:27:14.000Z,102800
2022-11-12T22:32:13.977Z,102790
2022-11-12T22:37:14.017Z,102790
2022-11-12T22:42:14.013Z,102780
2022-11-12T22:47:14.055Z,102780
2022-11-12T22:52:14.026Z,102780
2022-11-12T22:57:14.056Z,102780
2022-11-12T23:02:15.667Z,102780
2022-11-12T23:07:14.268Z,102780
2022-11-12T23:12:14.153Z,102780
2022-11-12T23:17:14.069Z,102770
2022-11-12T23:22:14.084Z,102780
2022-11-12T23:27:14.130Z,102770
2022-11-12T23:32:14.140Z,102770
2022-11-12T23:37:14.167Z,102760
2022-11-12T23:42:14.232Z,102760
2022-11-12T23:47:14.149Z,102760
2022-11-12T23:52:14.244Z,102750
2022-11-12T23:57:14.229Z,102750
